Time;durP1;ratioP1;P1;durP2;ratioP2;P2;SDS_P1;SDS_P2;PMS_P1;PMS_P2;Temp;Humidity;BMP_temperature;BMP_pressure;BME280_temperature;BME280_humidity;BME280_pressure;Samples;Min_cycle;Max_cycle;Signal;HPM_P1;HPM_P2
2023/12/31 00:01:06;;;;;;;4.00;1.60;;;;;;;4.02;81.04;100363.66;110778;247;38250;-74
2023/12/31 00:04:00;;;;;;;4.90;2.40;;;;;;;3.96;81.21;100362.17;110621;247;175351;-73
2023/12/31 00:06:34;;;;;;;3.80;1.60;;;;;;;3.90;81.37;100360.34;110781;247;38268;-70
2023/12/31 00:09:08;;;;;;;3.90;1.90;;;;;;;3.86;81.69;100359.00;110736;247;38434;-70
2023/12/31 00:11:42;;;;;;;3.70;1.90;;;;;;;3.80;81.78;100355.44;110794;247;38344;-71
2023/12/31 00:14:18;;;;;;;3.00;1.90;;;;;;;3.74;81.80;100353.95;110771;247;38825;-69
2023/12/31 00:16:54;;;;;;;2.80;1.90;;;;;;;3.66;81.82;100350.92;110758;247;38617;-70
2023/12/31 00:19:29;;;;;;;3.40;1.70;;;;;;;3.58;81.79;100352.39;110757;247;38677;-71
2023/12/31 00:22:03;;;;;;;3.70;2.00;;;;;;;3.50;81.66;100354.02;110781;247;38797;-70
2023/12/31 00:24:40;;;;;;;4.00;2.30;;;;;;;3.41;81.75;100352.04;110790;247;38259;-70
2023/12/31 00:27:14;;;;;;;4.30;2.60;;;;;;;3.33;81.99;100355.56;110754;247;39425;-71
2023/12/31 00:29:48;;;;;;;3.80;2.40;;;;;;;3.23;82.02;100357.88;110795;247;38321;-73
2023/12/31 00:32:22;;;;;;;4.30;2.80;;;;;;;3.14;82.07;100358.81;110717;247;38308;-72
2023/12/31 00:34:58;;;;;;;6.10;3.50;;;;;;;3.04;82.12;100362.86;110774;247;38319;-73
2023/12/31 00:37:35;;;;;;;5.50;2.40;;;;;;;2.97;82.17;100365.14;110771;247;38242;-72
2023/12/31 00:40:13;;;;;;;4.60;2.40;;;;;;;2.87;82.24;100367.11;110801;247;38245;-73
2023/12/31 00:42:50;;;;;;;5.40;2.80;;;;;;;2.80;82.47;100371.98;110725;247;39451;-70
2023/12/31 00:45:24;;;;;;;4.60;2.70;;;;;;;2.70;82.41;100377.55;110763;247;38753;-72
2023/12/31 00:47:59;;;;;;;3.70;2.10;;;;;;;2.62;82.55;100374.84;110710;247;38436;-70
2023/12/31 00:50:34;;;;;;;5.20;2.40;;;;;;;2.52;82.54;100378.34;110721;247;38402;-73
2023/12/31 00:53:09;;;;;;;4.10;2.70;;;;;;;2.43;82.69;100381.30;110725;247;38251;-69
2023/12/31 00:55:47;;;;;;;3.50;2.20;;;;;;;2.33;82.68;100381.02;110690;247;39377;-71
2023/12/31 00:58:24;;;;;;;3.60;2.20;;;;;;;2.27;82.81;100388.26;110724;247;37229;-70
2023/12/31 01:01:06;;;;;;;4.60;2.70;;;;;;;2.19;82.84;100387.27;110727;247;38275;-71
2023/12/31 01:03:42;;;;;;;3.40;2.20;;;;;;;2.14;83.17;100387.29;110773;247;38287;-73
2023/12/31 01:06:21;;;;;;;5.40;3.00;;;;;;;2.10;83.43;100387.98;110825;247;39332;-71
2023/12/31 01:08:59;;;;;;;4.60;2.30;;;;;;;2.05;83.70;100384.38;110755;247;39715;-71
2023/12/31 01:11:35;;;;;;;4.00;2.00;;;;;;;1.98;83.58;100385.60;110772;247;39517;-71
2023/12/31 01:14:09;;;;;;;3.30;2.20;;;;;;;1.96;83.88;100390.08;110765;247;38362;-71
2023/12/31 01:16:44;;;;;;;5.00;2.40;;;;;;;1.95;84.10;100389.58;110824;247;38291;-69
2023/12/31 01:19:18;;;;;;;5.90;3.40;;;;;;;1.97;84.46;100393.17;110795;247;38703;-70
2023/12/31 01:21:52;;;;;;;4.70;3.00;;;;;;;2.02;84.82;100395.41;110972;247;39919;-71
2023/12/31 01:24:26;;;;;;;5.00;3.20;;;;;;;2.03;84.94;100397.81;110827;247;39285;-71
2023/12/31 01:27:00;;;;;;;6.30;3.40;;;;;;;2.05;85.19;100401.92;110791;247;38443;-69
2023/12/31 01:29:34;;;;;;;6.20;3.10;;;;;;;2.09;85.54;100398.48;110757;247;39998;-69
2023/12/31 01:32:13;;;;;;;7.60;3.80;;;;;;;2.15;85.75;100400.86;110747;247;38544;-70
2023/12/31 01:34:47;;;;;;;5.30;3.60;;;;;;;2.18;86.01;100406.88;110779;247;38412;-71
2023/12/31 01:37:21;;;;;;;5.30;3.80;;;;;;;2.24;86.29;100403.60;110639;247;175787;-72
2023/12/31 01:39:56;;;;;;;7.60;4.40;;;;;;;2.32;86.84;100405.11;110718;247;38280;-70
2023/12/31 01:42:31;;;;;;;9.70;4.80;;;;;;;2.43;87.11;100402.84;110752;247;38405;-72
2023/12/31 01:45:09;;;;;;;7.40;4.50;;;;;;;2.50;87.36;100405.91;110720;247;39532;-69
2023/12/31 01:47:44;;;;;;;8.90;5.10;;;;;;;2.60;87.42;100408.95;110742;247;39470;-69
2023/12/31 01:50:18;;;;;;;7.30;4.30;;;;;;;2.68;87.55;100408.05;110696;247;38819;-71
2023/12/31 01:52:52;;;;;;;9.80;5.50;;;;;;;2.72;87.30;100408.90;110762;247;38899;-71
2023/12/31 01:55:26;;;;;;;10.40;5.60;;;;;;;2.76;87.29;100415.59;110706;247;38444;-72
2023/12/31 01:58:01;;;;;;;11.70;5.60;;;;;;;2.78;87.36;100416.27;110757;247;38782;-72
2023/12/31 02:00:35;;;;;;;8.80;5.20;;;;;;;2.79;87.08;100415.23;110765;247;38286;-70
2023/12/31 02:03:09;;;;;;;9.20;5.30;;;;;;;2.77;87.01;100411.80;110719;247;38553;-68
2023/12/31 02:05:46;;;;;;;8.80;5.10;;;;;;;2.77;87.14;100414.05;110735;247;38634;-68
2023/12/31 02:08:25;;;;;;;8.50;4.80;;;;;;;2.78;87.22;100412.30;110734;247;38280;-68
2023/12/31 02:10:57;;;;;;;;;;;;;;;2.84;87.40;100413.13;110709;247;38483;-71
2023/12/31 02:13:33;;;;;;;8.50;5.70;;;;;;;2.88;87.55;100416.90;110754;247;38860;-69
2023/12/31 02:16:15;;;;;;;11.00;5.90;;;;;;;2.90;87.52;100417.91;110742;247;38388;-69
2023/12/31 02:18:48;;;;;;;8.30;5.70;;;;;;;2.91;87.43;100416.20;110816;247;38373;-70
2023/12/31 02:21:23;;;;;;;11.40;6.30;;;;;;;2.89;87.15;100412.91;110791;247;39438;-70
2023/12/31 02:23:57;;;;;;;8.20;5.90;;;;;;;2.83;86.86;100412.78;110737;247;175754;-71
2023/12/31 02:26:31;;;;;;;8.10;5.80;;;;;;;2.74;86.60;100411.81;110761;247;38526;-70
2023/12/31 02:29:05;;;;;;;8.80;5.50;;;;;;;2.62;86.24;100411.36;110636;247;175430;-69
2023/12/31 02:31:39;;;;;;;8.00;5.60;;;;;;;2.52;86.16;100408.65;110819;247;38248;-68
2023/12/31 02:34:18;;;;;;;10.80;5.90;;;;;;;2.47;86.11;100414.17;110666;247;38417;-67
2023/12/31 02:36:58;;;;;;;7.90;5.40;;;;;;;2.43;86.27;100411.44;110773;247;38560;-68
2023/12/31 02:39:40;;;;;;;11.30;6.80;;;;;;;2.38;86.47;100411.13;110776;247;38248;-68
2023/12/31 02:42:14;;;;;;;10.70;7.10;;;;;;;2.32;86.79;100417.34;110849;247;40293;-68
2023/12/31 02:44:51;;;;;;;9.90;6.40;;;;;;;2.21;86.25;100421.67;110777;247;38985;-68
2023/12/31 02:47:28;;;;;;;8.60;6.00;;;;;;;2.06;85.60;100421.71;110787;247;38857;-69
2023/12/31 02:50:09;;;;;;;11.50;6.30;;;;;;;1.97;85.86;100422.25;110760;247;38831;-68
2023/12/31 02:52:53;;;;;;;9.00;5.90;;;;;;;1.92;86.04;100416.92;110716;247;38370;-69
2023/12/31 02:55:35;;;;;;;8.30;6.00;;;;;;;1.87;85.92;100416.27;110777;247;38272;-67
2023/12/31 02:58:11;;;;;;;10.00;6.10;;;;;;;1.79;85.82;100415.40;110748;247;40380;-68
2023/12/31 03:00:51;;;;;;;10.60;7.20;;;;;;;1.71;85.77;100423.16;110769;247;39040;-69
2023/12/31 03:03:28;;;;;;;9.60;6.60;;;;;;;1.62;85.59;100427.13;110748;247;39007;-69
2023/12/31 03:06:08;;;;;;;10.10;6.20;;;;;;;1.55;85.77;100427.29;110846;247;38709;-67
2023/12/31 03:08:46;;;;;;;8.30;6.20;;;;;;;1.48;85.80;100431.27;110778;247;38242;-67
2023/12/31 03:11:23;;;;;;;18.60;10.00;;;;;;;1.36;85.39;100432.80;110802;247;38264;-68
2023/12/31 03:14:05;;;;;;;15.70;9.70;;;;;;;1.30;85.74;100445.33;110726;247;38244;-66
2023/12/31 03:16:50;;;;;;;18.00;11.00;;;;;;;1.26;85.98;100449.11;110769;247;38377;-70
2023/12/31 03:19:33;;;;;;;22.80;12.40;;;;;;;1.21;86.07;100457.02;110773;247;38028;-70
2023/12/31 03:22:16;;;;;;;19.20;11.00;;;;;;;1.10;85.82;100455.80;110743;247;38327;-67
2023/12/31 03:24:50;;;;;;;15.90;9.80;;;;;;;0.97;85.57;100456.28;110756;247;39027;-71
2023/12/31 03:27:24;;;;;;;15.90;9.20;;;;;;;0.87;85.52;100455.91;110860;247;38869;-70
2023/12/31 03:29:58;;;;;;;12.10;8.50;;;;;;;0.81;85.64;100459.33;110796;247;38634;-69
2023/12/31 03:32:33;;;;;;;14.80;8.80;;;;;;;0.76;85.79;100460.17;110771;247;38832;-71
2023/12/31 03:35:08;;;;;;;14.20;8.80;;;;;;;0.72;85.83;100459.29;110710;247;39499;-69
2023/12/31 03:37:46;;;;;;;13.50;8.60;;;;;;;0.67;85.83;100460.48;110640;247;175685;-69
2023/12/31 03:40:21;;;;;;;13.00;7.70;;;;;;;0.60;85.82;100460.80;110702;247;38915;-69
2023/12/31 03:42:58;;;;;;;10.50;6.90;;;;;;;0.53;85.90;100459.91;110774;247;38282;-69
2023/12/31 03:45:40;;;;;;;9.60;6.50;;;;;;;0.48;86.09;100455.94;110771;247;39458;-69
2023/12/31 03:48:17;;;;;;;11.70;6.60;;;;;;;0.50;86.68;100459.05;110787;247;38519;-70
2023/12/31 03:50:53;;;;;;;12.20;6.50;;;;;;;0.58;87.05;100461.65;110738;247;39447;-69
2023/12/31 03:53:34;;;;;;;18.20;8.70;;;;;;;0.62;87.28;100459.09;110744;247;38404;-69
2023/12/31 03:56:11;;;;;;;33.10;13.70;;;;;;;0.65;87.32;100462.03;110047;247;911517;-69
2023/12/31 03:58:47;;;;;;;27.60;13.90;;;;;;;0.62;87.05;100460.29;110782;247;39944;-70
2023/12/31 04:01:28;;;;;;;29.90;13.70;;;;;;;0.57;87.07;100460.27;110719;247;38465;-69
2023/12/31 04:04:06;;;;;;;29.30;13.10;;;;;;;0.54;86.98;100462.48;110710;247;40001;-69
2023/12/31 04:06:43;;;;;;;25.90;12.40;;;;;;;0.52;86.95;100466.60;110749;247;39760;-68
2023/12/31 04:09:29;;;;;;;27.20;12.50;;;;;;;0.50;86.92;100468.83;110716;247;38338;-68
2023/12/31 04:12:19;;;;;;;24.00;11.60;;;;;;;0.49;87.06;100467.63;110754;247;38902;-70
2023/12/31 04:14:53;;;;;;;23.30;11.60;;;;;;;0.50;87.26;100467.98;110698;247;40208;-69
2023/12/31 04:17:27;;;;;;;19.20;9.50;;;;;;;0.49;87.12;100464.20;110736;247;39163;-71
2023/12/31 04:20:01;;;;;;;16.40;9.00;;;;;;;0.48;87.18;100470.02;110725;247;38466;-68
2023/12/31 04:22:36;;;;;;;17.20;8.20;;;;;;;0.45;87.10;100468.30;110699;247;38407;-68
2023/12/31 04:25:11;;;;;;;17.30;9.50;;;;;;;0.46;87.27;100466.75;110686;247;38534;-68
2023/12/31 04:27:45;;;;;;;20.60;11.10;;;;;;;0.46;87.27;100465.89;110696;247;38479;-67
2023/12/31 04:30:27;;;;;;;16.80;9.40;;;;;;;0.44;87.23;100465.89;110725;247;39735;-70
2023/12/31 04:33:06;;;;;;;12.70;7.50;;;;;;;0.42;87.39;100460.89;110709;247;37391;-69
2023/12/31 04:35:41;;;;;;;9.70;6.40;;;;;;;0.38;87.41;100463.10;110737;247;39460;-70
2023/12/31 04:38:15;;;;;;;9.10;5.80;;;;;;;0.34;87.33;100463.77;110727;247;38847;-69
2023/12/31 04:40:49;;;;;;;9.90;5.50;;;;;;;0.33;87.49;100465.30;110740;247;39031;-69
2023/12/31 04:43:23;;;;;;;9.40;5.30;;;;;;;0.34;87.54;100466.17;110720;247;38230;-72
2023/12/31 04:45:56;;;;;;;8.90;5.10;;;;;;;0.32;87.55;100467.02;110745;247;39856;-70
2023/12/31 04:48:30;;;;;;;6.50;4.60;;;;;;;0.32;87.71;100461.36;110716;247;38955;-69
2023/12/31 04:51:04;;;;;;;6.40;4.50;;;;;;;0.29;87.92;100461.52;110736;247;38260;-69
2023/12/31 04:53:39;;;;;;;8.00;4.70;;;;;;;0.29;88.16;100464.08;110692;247;39464;-69
2023/12/31 04:56:22;;;;;;;7.60;4.60;;;;;;;0.28;88.06;100464.08;110770;247;38433;-69
2023/12/31 04:58:58;;;;;;;7.30;4.80;;;;;;;0.28;88.15;100461.85;110700;247;38427;-68
2023/12/31 05:01:33;;;;;;;7.30;4.40;;;;;;;0.29;88.22;100458.59;110760;247;39862;-71
2023/12/31 05:04:07;;;;;;;6.30;4.70;;;;;;;0.30;88.37;100455.86;110767;247;39775;-71
2023/12/31 05:06:41;;;;;;;6.50;4.90;;;;;;;0.31;88.41;100455.52;110777;247;38328;-69
2023/12/31 05:09:15;;;;;;;8.10;5.40;;;;;;;0.27;88.51;100453.79;110621;247;175993;-69
2023/12/31 05:11:49;;;;;;;9.30;5.50;;;;;;;0.24;88.60;100451.02;110778;247;38782;-70
2023/12/31 05:14:23;;;;;;;7.00;5.00;;;;;;;0.21;88.42;100453.08;110805;247;38231;-70
2023/12/31 05:16:57;;;;;;;7.60;5.00;;;;;;;0.19;88.64;100454.59;110734;247;38234;-69
2023/12/31 05:19:32;;;;;;;8.40;4.90;;;;;;;0.20;88.72;100450.67;110751;247;38235;-70
2023/12/31 05:22:09;;;;;;;8.70;5.70;;;;;;;0.20;88.83;100451.70;110823;247;38256;-71
2023/12/31 05:24:43;;;;;;;8.80;5.70;;;;;;;0.18;88.83;100450.65;110777;247;38440;-71
2023/12/31 05:27:19;;;;;;;7.60;5.60;;;;;;;0.15;88.93;100453.73;110723;247;38248;-69
2023/12/31 05:29:53;;;;;;;10.20;6.50;;;;;;;0.17;89.25;100454.25;110805;247;38680;-71
2023/12/31 05:32:27;;;;;;;8.30;5.30;;;;;;;0.17;89.27;100449.80;110802;247;38373;-68
2023/12/31 05:35:01;;;;;;;8.70;5.60;;;;;;;0.17;89.18;100447.21;110818;247;39607;-69
2023/12/31 05:37:41;;;;;;;10.50;6.40;;;;;;;0.17;89.40;100451.49;110686;247;38468;-69
2023/12/31 05:40:18;;;;;;;10.30;6.70;;;;;;;0.21;89.58;100459.08;110506;247;375946;-69
2023/12/31 05:42:52;;;;;;;12.90;8.20;;;;;;;0.22;89.95;100459.08;110733;247;38886;-70
2023/12/31 05:45:26;;;;;;;13.10;7.90;;;;;;;0.24;90.25;100464.05;110694;247;40381;-69
2023/12/31 05:48:00;;;;;;;11.00;7.40;;;;;;;0.25;90.49;100465.45;110684;247;39381;-69
2023/12/31 05:50:38;;;;;;;11.10;6.90;;;;;;;0.29;90.53;100467.34;110670;247;39443;-68
2023/12/31 05:53:22;;;;;;;14.50;7.30;;;;;;;0.33;90.38;100464.79;110668;247;38791;-69
2023/12/31 05:56:03;;;;;;;9.80;7.60;;;;;;;0.36;90.34;100466.36;110694;247;38671;-69
2023/12/31 05:58:42;;;;;;;11.80;7.30;;;;;;;0.37;90.34;100472.20;110738;247;39284;-69
2023/12/31 06:01:20;;;;;;;;;;;;;;;0.34;89.98;100471.14;110781;247;38347;-69
2023/12/31 06:04:01;;;;;;;13.40;7.60;;;;;;;0.23;89.65;100469.89;110700;247;38541;-69
2023/12/31 06:06:40;;;;;;;12.90;8.40;;;;;;;0.15;89.78;100467.10;110726;247;40017;-70
2023/12/31 06:09:15;;;;;;;12.20;7.00;;;;;;;0.10;89.72;100473.77;110725;247;39544;-69
2023/12/31 06:11:49;;;;;;;11.20;7.30;;;;;;;0.06;89.68;100472.02;110766;247;39018;-69
2023/12/31 06:14:22;;;;;;;12.40;7.70;;;;;;;0.07;89.72;100467.57;110736;247;38325;-67
2023/12/31 06:16:56;;;;;;;12.00;7.50;;;;;;;0.07;89.91;100465.52;110698;247;39648;-70
2023/12/31 06:19:30;;;;;;;14.30;7.70;;;;;;;0.08;90.12;100464.83;110776;247;39405;-68
2023/12/31 06:22:08;;;;;;;12.70;7.80;;;;;;;0.05;90.01;100471.67;110885;247;38420;-68
2023/12/31 06:24:48;;;;;;;12.20;8.30;;;;;;;-0.01;89.80;100471.29;110738;247;40155;-68
2023/12/31 06:27:27;;;;;;;12.40;8.00;;;;;;;-0.05;89.75;100468.87;110695;247;38855;-67
2023/12/31 06:30:04;;;;;;;12.80;7.70;;;;;;;-0.06;89.99;100467.46;110713;247;38367;-70
2023/12/31 06:32:43;;;;;;;11.70;7.40;;;;;;;-0.04;89.97;100473.15;110704;247;39999;-70
2023/12/31 06:35:25;;;;;;;11.00;6.90;;;;;;;-0.06;89.74;100470.90;110765;247;38298;-69
2023/12/31 06:37:59;;;;;;;11.80;7.90;;;;;;;-0.10;89.71;100472.43;110766;247;38313;-70
2023/12/31 06:40:33;;;;;;;11.50;7.60;;;;;;;-0.15;89.75;100464.85;110756;247;38449;-70
2023/12/31 06:43:07;;;;;;;11.00;7.30;;;;;;;-0.20;89.73;100460.88;110738;247;38792;-70
2023/12/31 06:45:42;;;;;;;10.50;7.20;;;;;;;-0.24;89.77;100459.13;110772;247;38535;-70
2023/12/31 06:48:17;;;;;;;11.60;7.20;;;;;;;-0.26;89.70;100457.90;110763;247;38317;-69
2023/12/31 06:50:51;;;;;;;10.80;7.20;;;;;;;-0.27;89.75;100457.55;110757;247;38703;-70
2023/12/31 06:53:26;;;;;;;11.70;7.60;;;;;;;-0.28;89.65;100464.07;110702;247;39504;-70
2023/12/31 06:56:00;;;;;;;14.30;8.30;;;;;;;-0.31;89.77;100465.23;110839;247;38757;-71
2023/12/31 06:58:34;;;;;;;14.80;8.40;;;;;;;-0.34;89.96;100467.98;110643;247;175983;-72
2023/12/31 07:01:09;;;;;;;12.40;7.40;;;;;;;-0.34;90.15;100466.95;110769;247;38404;-71
2023/12/31 07:03:43;;;;;;;13.10;8.70;;;;;;;-0.34;90.30;100464.71;110726;247;38322;-71
2023/12/31 07:06:17;;;;;;;13.20;8.70;;;;;;;-0.27;90.65;100465.79;110817;247;38338;-68
2023/12/31 07:08:51;;;;;;;15.10;9.10;;;;;;;-0.20;91.01;100467.05;110745;247;38954;-70
2023/12/31 07:11:26;;;;;;;14.20;8.70;;;;;;;-0.16;91.16;100462.96;110784;247;39192;-71
2023/12/31 07:14:00;;;;;;;15.10;9.40;;;;;;;-0.11;91.35;100464.88;110668;247;175972;-72
2023/12/31 07:16:34;;;;;;;14.00;9.30;;;;;;;-0.04;91.46;100464.23;110074;247;916517;-71
2023/12/31 07:19:09;;;;;;;10.80;8.00;;;;;;;-0.02;91.35;100462.19;110772;247;38553;-72
2023/12/31 07:21:44;;;;;;;13.50;8.70;;;;;;;0.01;91.14;100459.98;110731;247;38562;-71
2023/12/31 07:24:19;;;;;;;12.30;8.50;;;;;;;0.05;91.12;100459.66;110872;247;38391;-72
2023/12/31 07:26:54;;;;;;;14.00;8.90;;;;;;;0.09;90.94;100462.25;110828;247;38598;-71
2023/12/31 07:29:29;;;;;;;12.80;8.00;;;;;;;0.08;90.95;100463.62;110841;247;38259;-70
2023/12/31 07:32:09;;;;;;;11.80;8.50;;;;;;;0.11;91.08;100464.17;110781;247;38464;-69
2023/12/31 07:34:46;;;;;;;10.20;7.90;;;;;;;0.16;91.11;100461.63;110787;247;38546;-71
2023/12/31 07:37:21;;;;;;;11.40;8.20;;;;;;;0.21;90.95;100462.85;110732;247;39371;-72
2023/12/31 07:39:55;;;;;;;12.30;8.90;;;;;;;0.26;91.16;100465.45;110769;247;38807;-71
2023/12/31 07:42:29;;;;;;;13.90;9.00;;;;;;;0.33;91.48;100469.60;110755;247;38796;-72
2023/12/31 07:45:04;;;;;;;15.80;9.70;;;;;;;0.40;91.53;100469.98;110770;247;38861;-71
2023/12/31 07:47:39;;;;;;;13.80;9.40;;;;;;;0.43;91.57;100463.83;110765;247;38537;-72
2023/12/31 07:50:14;;;;;;;13.30;9.30;;;;;;;0.51;91.52;100469.34;110767;247;38837;-70
2023/12/31 07:52:48;;;;;;;12.60;8.20;;;;;;;0.59;91.70;100470.76;110746;247;38276;-69
2023/12/31 07:55:22;;;;;;;20.20;9.70;;;;;;;0.66;91.74;100473.18;110730;247;38634;-70
2023/12/31 07:57:56;;;;;;;14.60;9.90;;;;;;;0.74;91.98;100472.70;110698;247;39908;-70
2023/12/31 08:00:30;;;;;;;15.40;10.70;;;;;;;0.84;92.17;100469.81;110741;247;39180;-68
2023/12/31 08:03:08;;;;;;;17.60;9.80;;;;;;;0.94;92.46;100470.36;110673;247;40093;-68
2023/12/31 08:05:45;;;;;;;15.40;10.10;;;;;;;1.03;92.33;100470.39;110699;247;38565;-70
2023/12/31 08:08:25;;;;;;;14.70;9.80;;;;;;;1.14;92.58;100471.27;110720;247;39518;-70
2023/12/31 08:11:04;;;;;;;16.30;10.20;;;;;;;1.29;92.88;100476.61;110692;247;38859;-69
2023/12/31 08:13:43;;;;;;;14.70;10.60;;;;;;;1.40;92.68;100475.77;110737;247;38800;-68
2023/12/31 08:16:32;;;;;;;18.60;11.80;;;;;;;1.49;92.81;100478.52;110738;247;39315;-72
2023/12/31 08:19:06;;;;;;;19.40;12.40;;;;;;;1.59;93.07;100477.66;110724;247;40545;-72
2023/12/31 08:21:45;;;;;;;18.50;11.60;;;;;;;1.68;92.77;100481.29;110740;247;38784;-69
2023/12/31 08:24:32;;;;;;;19.40;11.20;;;;;;;1.76;92.94;100482.48;110707;247;39178;-69
2023/12/31 08:27:20;;;;;;;17.90;12.00;;;;;;;1.88;93.01;100480.06;110760;247;38384;-68
2023/12/31 08:30:03;;;;;;;15.60;11.10;;;;;;;1.98;92.92;100478.34;110762;247;39143;-70
2023/12/31 08:32:36;;;;;;;;;;;;;;;2.02;92.62;100479.88;110740;247;39250;-68
2023/12/31 08:35:12;;;;;;;18.10;12.30;;;;;;;2.03;92.52;100478.69;110699;247;39552;-71
2023/12/31 08:37:47;;;;;;;19.30;12.90;;;;;;;2.06;92.67;100482.46;110714;247;39712;-69
2023/12/31 08:40:21;;;;;;;19.10;11.90;;;;;;;2.11;92.54;100482.62;110728;247;38244;-69
2023/12/31 08:42:54;;;;;;;15.00;10.30;;;;;;;2.17;92.49;100477.96;110748;247;39578;-69
2023/12/31 08:45:34;;;;;;;17.20;11.30;;;;;;;2.23;92.51;100481.56;110746;247;38473;-68
2023/12/31 08:48:12;;;;;;;18.10;11.70;;;;;;;2.33;92.80;100481.20;110752;247;38288;-68
2023/12/31 08:50:52;;;;;;;19.50;12.80;;;;;;;2.40;92.73;100477.91;110694;247;39044;-69
2023/12/31 08:53:31;;;;;;;21.60;12.90;;;;;;;2.48;92.83;100481.33;110717;247;38857;-68
2023/12/31 08:56:08;;;;;;;18.80;12.90;;;;;;;2.58;93.12;100481.29;110637;247;175744;-70
2023/12/31 08:58:46;;;;;;;18.50;12.40;;;;;;;2.67;93.05;100484.88;110744;247;38524;-70
2023/12/31 09:01:23;;;;;;;17.90;11.80;;;;;;;2.77;93.19;100485.70;110689;247;38397;-72
2023/12/31 09:03:58;;;;;;;19.30;12.90;;;;;;;2.90;93.05;100487.18;110756;247;38349;-72
2023/12/31 09:06:32;;;;;;;20.80;13.30;;;;;;;3.00;93.03;100486.61;110770;247;38350;-69
2023/12/31 09:09:08;;;;;;;22.90;14.20;;;;;;;3.07;92.66;100488.65;110727;247;39427;-68
2023/12/31 09:11:42;;;;;;;22.80;15.00;;;;;;;3.17;92.92;100488.77;110795;247;38309;-69
2023/12/31 09:14:17;;;;;;;23.20;14.00;;;;;;;3.26;92.99;100481.80;110717;247;38847;-71
2023/12/31 09:16:51;;;;;;;18.90;12.10;;;;;;;3.38;93.06;100477.08;110761;247;38291;-70
2023/12/31 09:19:25;;;;;;;18.70;11.90;;;;;;;3.49;92.91;100478.02;110720;247;38250;-70
2023/12/31 09:22:02;;;;;;;18.90;12.30;;;;;;;3.62;92.72;100473.27;110736;247;39244;-71
2023/12/31 09:24:38;;;;;;;18.10;12.70;;;;;;;3.76;92.67;100473.17;110721;247;39841;-72
2023/12/31 09:27:12;;;;;;;20.90;13.60;;;;;;;3.89;92.71;100470.27;110686;247;38248;-69
2023/12/31 09:29:45;;;;;;;20.80;14.40;;;;;;;4.02;92.58;100468.27;110772;247;39223;-72
2023/12/31 09:32:20;;;;;;;21.20;13.70;;;;;;;4.15;92.45;100464.33;110745;247;39406;-72
2023/12/31 09:34:54;;;;;;;20.80;13.20;;;;;;;4.28;92.04;100452.80;110760;247;38535;-72
2023/12/31 09:37:29;;;;;;;21.30;11.70;;;;;;;4.43;91.77;100454.00;110763;247;39419;-73
2023/12/31 09:40:03;;;;;;;19.30;11.50;;;;;;;4.57;91.24;100453.84;110723;247;38034;-75
2023/12/31 09:42:49;;;;;;;17.80;12.30;;;;;;;4.70;90.99;100452.13;110766;247;39794;-71
2023/12/31 09:45:26;;;;;;;19.90;12.40;;;;;;;4.85;90.78;100450.55;110767;247;38614;-69
2023/12/31 09:48:02;;;;;;;18.70;12.50;;;;;;;4.99;90.27;100447.94;110746;247;39449;-72
2023/12/31 09:50:36;;;;;;;21.60;14.20;;;;;;;5.09;89.73;100444.16;110753;247;38213;-72
2023/12/31 09:53:10;;;;;;;20.10;13.50;;;;;;;5.18;89.47;100438.52;110733;247;38533;-71
2023/12/31 09:55:44;;;;;;;18.50;12.90;;;;;;;5.27;88.97;100434.58;110741;247;38501;-72
2023/12/31 09:58:18;;;;;;;18.70;12.30;;;;;;;5.32;88.50;100429.64;110690;247;39786;-72
2023/12/31 10:00:52;;;;;;;20.60;12.70;;;;;;;5.37;88.17;100427.48;110782;247;38571;-75
2023/12/31 10:03:26;;;;;;;23.80;11.30;;;;;;;5.43;87.98;100425.14;110748;247;38274;-72
2023/12/31 10:06:00;;;;;;;18.60;12.00;;;;;;;5.52;87.57;100425.87;110783;247;38646;-73
2023/12/31 10:08:34;;;;;;;20.20;12.30;;;;;;;5.60;87.24;100420.71;110733;247;38503;-73
2023/12/31 10:11:09;;;;;;;19.70;12.70;;;;;;;5.67;86.80;100419.55;110094;247;908357;-73
2023/12/31 10:13:43;;;;;;;20.50;12.50;;;;;;;5.73;86.94;100412.86;110846;247;39474;-73
2023/12/31 10:16:40;;;;;;;17.90;12.00;;;;;;;5.81;86.62;100409.10;110741;247;39424;-71
2023/12/31 10:19:15;;;;;;;17.50;11.10;;;;;;;5.90;86.54;100410.14;110720;247;38977;-71
2023/12/31 10:21:50;;;;;;;21.50;12.40;;;;;;;5.95;86.23;100406.45;110754;247;38828;-72
2023/12/31 10:24:33;;;;;;;19.40;14.10;;;;;;;6.01;86.00;100406.00;110767;247;38324;-73
2023/12/31 10:27:10;;;;;;;18.10;13.60;;;;;;;6.03;85.54;100410.11;110748;247;38257;-71
2023/12/31 10:29:44;;;;;;;17.10;11.70;;;;;;;6.06;85.70;100404.16;110775;247;38334;-71
2023/12/31 10:32:21;;;;;;;17.40;10.80;;;;;;;6.10;85.60;100404.08;110743;247;38670;-72
2023/12/31 10:35:09;;;;;;;14.90;10.30;;;;;;;6.11;85.47;100404.95;110748;247;38245;-77
2023/12/31 10:37:44;;;;;;;15.10;10.00;;;;;;;6.10;84.82;100402.54;110765;247;38907;-73
2023/12/31 10:40:28;;;;;;;18.30;9.80;;;;;;;6.03;84.20;100395.92;110702;248;39467;-73
2023/12/31 10:43:12;;;;;;;20.50;10.60;;;;;;;5.99;84.40;100390.45;110782;247;39478;-71
2023/12/31 10:45:46;;;;;;;18.40;10.00;;;;;;;5.97;84.22;100384.27;110813;247;38258;-72
2023/12/31 10:48:23;;;;;;;18.80;9.90;;;;;;;5.92;84.09;100380.88;110801;247;39470;-71
2023/12/31 10:51:08;;;;;;;18.40;10.50;;;;;;;5.89;84.15;100375.70;110785;247;38645;-73
2023/12/31 10:53:42;;;;;;;17.90;10.60;;;;;;;5.80;83.18;100377.78;110944;247;38358;-73
2023/12/31 10:56:16;;;;;;;22.30;12.40;;;;;;;5.71;83.57;100378.64;110853;247;38413;-74
2023/12/31 10:58:51;;;;;;;24.20;15.30;;;;;;;5.67;83.67;100371.10;110692;247;38568;-74
2023/12/31 11:01:25;;;;;;;18.40;11.70;;;;;;;5.64;83.35;100365.45;110798;247;38868;-75
2023/12/31 11:04:00;;;;;;;16.30;9.50;;;;;;;5.62;83.64;100360.81;110820;247;38301;-74
2023/12/31 11:06:34;;;;;;;17.60;9.40;;;;;;;5.63;83.45;100354.20;110883;247;39216;-73
2023/12/31 11:09:08;;;;;;;16.30;9.40;;;;;;;5.61;83.45;100350.25;110796;247;38561;-71
2023/12/31 11:11:45;;;;;;;15.40;9.30;;;;;;;5.60;83.44;100348.55;110842;247;38560;-71
2023/12/31 11:14:21;;;;;;;14.50;9.00;;;;;;;5.56;83.01;100347.59;110750;247;38333;-73
2023/12/31 11:17:02;;;;;;;13.40;8.30;;;;;;;5.50;82.98;100345.61;110678;247;38877;-71
2023/12/31 11:20:05;;;;;;;15.30;8.00;;;;;;;5.48;83.13;100344.80;110795;247;39695;-75
2023/12/31 11:22:49;;;;;;;13.80;8.40;;;;;;;5.43;82.85;100338.14;110808;247;38407;-73
2023/12/31 11:25:34;;;;;;;15.00;8.40;;;;;;;5.40;82.86;100335.75;110844;247;38865;-73
2023/12/31 11:28:10;;;;;;;14.70;8.10;;;;;;;5.35;82.95;100333.92;110790;247;38571;-73
2023/12/31 11:30:54;;;;;;;13.10;8.20;;;;;;;5.32;82.76;100327.75;110878;247;38375;-75
2023/12/31 11:33:32;;;;;;;14.90;8.00;;;;;;;5.28;82.78;100323.86;110810;247;38228;-74
2023/12/31 11:36:14;;;;;;;14.70;8.20;;;;;;;5.25;82.75;100321.99;110778;247;39446;-73
2023/12/31 11:39:00;;;;;;;14.70;8.10;;;;;;;5.23;82.58;100316.00;110757;247;38804;-72
2023/12/31 11:41:44;;;;;;;17.20;8.50;;;;;;;5.21;82.67;100311.17;110744;247;38245;-74
2023/12/31 11:44:39;;;;;;;13.40;8.60;;;;;;;5.19;82.59;100301.02;110701;247;40476;-73
2023/12/31 11:47:16;;;;;;;21.20;11.90;;;;;;;5.17;82.79;100294.98;110754;247;38304;-74
2023/12/31 11:49:53;;;;;;;19.20;9.60;;;;;;;5.15;82.83;100295.70;110804;247;38261;-73
2023/12/31 11:52:41;;;;;;;18.70;9.90;;;;;;;5.10;82.75;100295.97;110767;247;38429;-71
2023/12/31 11:55:18;;;;;;;16.20;9.60;;;;;;;5.05;82.69;100296.91;110707;247;39705;-72
2023/12/31 11:57:52;;;;;;;18.00;8.70;;;;;;;5.00;82.84;100292.52;110722;247;38337;-71
2023/12/31 12:00:26;;;;;;;19.50;10.10;;;;;;;4.99;82.88;100290.28;110057;247;923382;-74
2023/12/31 12:03:09;;;;;;;14.60;8.50;;;;;;;4.99;82.85;100286.83;110767;247;38426;-73
2023/12/31 12:05:46;;;;;;;20.10;9.40;;;;;;;5.00;83.03;100286.81;110753;247;38239;-73
2023/12/31 12:08:20;;;;;;;14.10;8.50;;;;;;;5.00;83.08;100287.84;110708;247;40610;-73